createdAt,value
2022-07-25T00:00:22.408Z,88.69
2022-07-25T00:01:22.392Z,89.37
2022-07-25T00:02:22.657Z,89.07
2022-07-25T00:03:22.289Z,89.37
2022-07-25T00:04:22.412Z,89.27
2022-07-25T00:05:22.233Z,89.37
2022-07-25T00:06:22.178Z,89.85
2022-07-25T00:07:22.197Z,89.47
2022-07-25T00:08:22.116Z,89.37
2022-07-25T00:09:22.219Z,89.27
2022-07-25T00:10:22.021Z,89.47
2022-07-25T00:11:22.232Z,89.47
2022-07-25T00:12:21.967Z,89.56
2022-07-25T00:13:22.242Z,89.17
2022-07-25T00:14:21.861Z,89.47
2022-07-25T00:15:22.056Z,89.47
2022-07-25T00:16:21.849Z,89.75
2022-07-25T00:17:21.747Z,90.14
2022-07-25T00:18:21.702Z,90.33
2022-07-25T00:19:21.867Z,90.53
2022-07-25T00:20:21.625Z,90.05
2022-07-25T00:21:21.689Z,90.33
2022-07-25T00:22:21.546Z,90.62
2022-07-25T00:23:21.510Z,90.77
2022-07-25T00:24:21.475Z,90.19
2022-07-25T00:25:21.714Z,90.29
2022-07-25T00:26:21.395Z,90.00
2022-07-25T00:27:21.521Z,90.58
2022-07-25T00:28:21.315Z,90.58
2022-07-25T00:29:21.278Z,90.87
2022-07-25T00:30:21.341Z,91.25
2022-07-25T00:31:21.292Z,91.83
2022-07-25T00:32:22.382Z,91.54
2022-07-25T00:33:21.122Z,91.35
2022-07-25T00:34:21.078Z,92.32
2022-07-25T00:35:21.038Z,92.50
2022-07-25T00:36:21.389Z,92.32
2022-07-25T00:37:20.963Z,92.50
2022-07-25T00:38:21.110Z,92.32
2022-07-25T00:39:20.877Z,92.65
2022-07-25T00:40:20.847Z,92.36
2022-07-25T00:41:20.805Z,93.33
2022-07-25T00:42:20.914Z,93.33
2022-07-25T00:43:20.725Z,93.13
2022-07-25T00:44:20.928Z,93.62
2022-07-25T00:45:20.644Z,93.71
2022-07-25T00:46:20.789Z,93.71
2022-07-25T00:47:20.565Z,93.81
2022-07-25T00:48:20.954Z,93.81
2022-07-25T00:49:20.489Z,94.68
2022-07-25T00:50:20.560Z,94.29
2022-07-25T00:51:20.566Z,94.78
2022-07-25T00:52:20.377Z,94.29
2022-07-25T00:53:20.381Z,94.68
2022-07-25T00:54:20.315Z,94.00
2022-07-25T00:55:20.419Z,94.48
2022-07-25T00:56:20.210Z,94.29
2022-07-25T00:57:20.172Z,93.91
2022-07-25T00:58:20.210Z,93.81
2022-07-25T00:59:20.295Z,94.00
2022-07-25T01:00:20.231Z,93.81
2022-07-25T01:01:20.051Z,94.00
2022-07-25T01:02:20.102Z,93.52
2022-07-25T01:03:20.035Z,93.52
2022-07-25T01:04:20.049Z,93.71
2022-07-25T01:05:19.862Z,93.62
2022-07-25T01:06:20.063Z,94.00
2022-07-25T01:07:19.778Z,94.00
2022-07-25T01:08:19.737Z,94.00
2022-07-25T01:09:20.956Z,93.81
2022-07-25T01:10:19.894Z,93.52
2022-07-25T01:11:19.619Z,93.81
2022-07-25T01:12:19.700Z,93.71
2022-07-25T01:13:19.537Z,93.91
2022-07-25T01:14:19.507Z,94.58
2022-07-25T01:15:19.719Z,94.39
2022-07-25T01:16:19.485Z,93.91
2022-07-25T01:17:19.525Z,94.68
2022-07-25T01:18:19.354Z,94.39
2022-07-25T01:19:19.545Z,93.62
2022-07-25T01:20:19.443Z,94.68
2022-07-25T01:21:19.353Z,94.58
2022-07-25T01:22:19.184Z,94.48
2022-07-25T01:23:19.369Z,94.58
2022-07-25T01:24:19.105Z,94.58
2022-07-25T01:25:19.084Z,94.29
2022-07-25T01:26:19.056Z,94.29
2022-07-25T01:27:19.395Z,94.39
2022-07-25T01:28:18.955Z,94.78
2022-07-25T01:29:19.004Z,95.26
2022-07-25T01:30:18.875Z,95.16
2022-07-25T01:31:18.991Z,95.26
2022-07-25T01:32:19.034Z,95.45
2022-07-25T01:33:18.773Z,95.06
2022-07-25T01:34:18.836Z,95.16
2022-07-25T01:35:18.674Z,95.16
2022-07-25T01:36:18.649Z,95.84
2022-07-25T01:37:18.591Z,95.21
2022-07-25T01:38:18.668Z,95.50
2022-07-25T01:39:18.707Z,95.69
2022-07-25T01:40:18.705Z,95.79
2022-07-25T01:41:21.553Z,95.98
2022-07-25T01:42:18.392Z,95.98
2022-07-25T01:43:18.361Z,95.98
2022-07-25T01:44:18.496Z,96.08
2022-07-25T01:45:18.301Z,96.08
2022-07-25T01:46:18.348Z,95.69
2022-07-25T01:47:18.193Z,95.50
2022-07-25T01:48:18.159Z,96.85
2022-07-25T01:49:18.361Z,96.56
2022-07-25T01:50:18.073Z,96.17
2022-07-25T01:51:20.423Z,96.37
2022-07-25T01:52:18.005Z,96.37
2022-07-25T01:53:17.959Z,96.37
2022-07-25T01:54:17.918Z,96.08
2022-07-25T01:55:17.974Z,95.50
2022-07-25T01:56:17.836Z,95.98
2022-07-25T01:57:17.872Z,95.40
2022-07-25T01:58:17.758Z,95.79
2022-07-25T01:59:17.725Z,95.69
2022-07-25T02:00:17.676Z,95.79
2022-07-25T02:01:17.991Z,95.59
2022-07-25T02:02:17.955Z,94.92
2022-07-25T02:03:17.714Z,95.21
2022-07-25T02:04:17.575Z,94.92
2022-07-25T02:05:17.478Z,95.40
2022-07-25T02:06:17.525Z,95.89
2022-07-25T02:07:17.419Z,95.89
2022-07-25T02:08:17.542Z,96.08
2022-07-25T02:09:17.609Z,96.08
2022-07-25T02:10:17.290Z,95.98
2022-07-25T02:11:17.260Z,96.61
2022-07-25T02:12:17.375Z,95.94
2022-07-25T02:13:17.165Z,96.80
2022-07-25T02:14:17.399Z,96.70
2022-07-25T02:15:17.111Z,96.89
2022-07-25T02:16:17.043Z,96.99
2022-07-25T02:17:17.296Z,97.09
2022-07-25T02:18:16.961Z,96.80
2022-07-25T02:19:17.029Z,97.28
2022-07-25T02:20:16.886Z,96.99
2022-07-25T02:21:17.233Z,96.99
2022-07-25T02:22:16.809Z,96.70
2022-07-25T02:23:16.844Z,96.32
2022-07-25T02:24:16.737Z,96.61
2022-07-25T02:25:16.857Z,96.51
2022-07-25T02:26:16.664Z,96.70
2022-07-25T02:27:16.855Z,96.70
2022-07-25T02:28:16.564Z,96.99
2022-07-25T02:29:16.679Z,96.70
2022-07-25T02:30:16.492Z,96.99
2022-07-25T02:31:16.781Z,97.09
2022-07-25T02:32:16.410Z,97.76
2022-07-25T02:33:16.540Z,97.96
2022-07-25T02:34:16.510Z,96.89
2022-07-25T02:35:16.291Z,96.99
2022-07-25T02:36:16.319Z,97.86
2022-07-25T02:37:16.211Z,97.33
2022-07-25T02:38:16.329Z,97.72
2022-07-25T02:39:16.143Z,97.62
2022-07-25T02:40:16.340Z,98.00
2022-07-25T02:41:16.048Z,97.96
2022-07-25T02:42:16.148Z,97.96
2022-07-25T02:43:15.974Z,97.96
2022-07-25T02:44:15.931Z,98.15
2022-07-25T02:45:16.020Z,97.96
2022-07-25T02:46:16.011Z,98.15
2022-07-25T02:47:15.811Z,97.57
2022-07-25T02:48:15.995Z,97.67
2022-07-25T02:49:15.815Z,97.86
2022-07-25T02:50:15.686Z,98.05
2022-07-25T02:51:15.683Z,98.05
2022-07-25T02:52:15.823Z,97.76
2022-07-25T02:53:21.171Z,97.67
2022-07-25T02:54:15.819Z,97.96
2022-07-25T02:55:15.628Z,97.42
2022-07-25T02:56:15.637Z,97.62
2022-07-25T02:57:15.499Z,97.62
2022-07-25T02:58:15.449Z,97.24
2022-07-25T02:59:15.338Z,97.91
2022-07-25T03:00:15.472Z,97.96
2022-07-25T03:01:15.336Z,98.15
2022-07-25T03:02:15.209Z,98.00
2022-07-25T03:03:15.284Z,97.81
2022-07-25T03:04:15.265Z,97.91
2022-07-25T03:05:15.295Z,98.00
2022-07-25T03:06:15.050Z,97.81
2022-07-25T03:07:15.309Z,98.00
2022-07-25T03:08:14.967Z,98.10
2022-07-25T03:09:15.145Z,97.42
2022-07-25T03:10:14.894Z,97.86
2022-07-25T03:11:15.028Z,98.10
2022-07-25T03:12:14.813Z,97.81
2022-07-25T03:13:14.768Z,97.62
2022-07-25T03:14:14.726Z,98.10
2022-07-25T03:15:14.870Z,97.67
2022-07-25T03:16:14.716Z,98.10
2022-07-25T03:17:14.866Z,97.91
2022-07-25T03:18:14.576Z,98.10
2022-07-25T03:19:14.533Z,98.10
2022-07-25T03:20:14.691Z,97.91
2022-07-25T03:21:14.449Z,98.00
2022-07-25T03:22:14.506Z,98.00
2022-07-25T03:23:14.402Z,98.00
2022-07-25T03:24:14.506Z,98.19
2022-07-25T03:25:15.957Z,97.81
2022-07-25T03:26:14.329Z,97.72
2022-07-25T03:27:14.225Z,97.91
2022-07-25T03:28:14.333Z,97.76
2022-07-25T03:29:14.470Z,97.57
2022-07-25T03:30:14.091Z,97.47
2022-07-25T03:31:14.053Z,97.24
2022-07-25T03:32:14.202Z,97.86
2022-07-25T03:33:13.971Z,97.76
2022-07-25T03:34:14.171Z,97.81
2022-07-25T03:35:13.915Z,97.81
2022-07-25T03:36:13.858Z,97.62
2022-07-25T03:37:13.813Z,97.62
2022-07-25T03:38:13.999Z,97.76
2022-07-25T03:39:13.862Z,97.81
2022-07-25T03:40:13.804Z,97.81
2022-07-25T03:41:13.656Z,97.72
2022-07-25T03:42:14.841Z,97.42
2022-07-25T03:43:13.586Z,98.10
2022-07-25T03:44:13.841Z,98.10
2022-07-25T03:45:13.495Z,97.81
2022-07-25T03:46:13.759Z,98.29
2022-07-25T03:47:20.193Z,98.10
2022-07-25T03:48:13.372Z,97.81
2022-07-25T03:49:13.715Z,98.58
2022-07-25T03:50:13.291Z,98.49
2022-07-25T03:51:13.476Z,98.68
2022-07-25T03:52:13.229Z,98.39
2022-07-25T03:53:13.174Z,98.49
2022-07-25T03:54:13.292Z,98.87
2022-07-25T03:55:13.132Z,98.77
2022-07-25T03:56:13.302Z,98.49
2022-07-25T03:57:13.031Z,98.87
2022-07-25T03:58:12.990Z,98.68
2022-07-25T03:59:12.933Z,98.87
2022-07-25T04:00:13.130Z,99.26
2022-07-25T04:01:13.089Z,98.87
2022-07-25T04:02:12.967Z,98.49
2022-07-25T04:03:12.773Z,98.68
2022-07-25T04:04:12.729Z,98.87
2022-07-25T04:05:12.992Z,98.49
2022-07-25T04:06:12.648Z,99.06
2022-07-25T04:07:12.773Z,98.58
2022-07-25T04:08:12.827Z,98.68
2022-07-25T04:09:12.785Z,98.58
2022-07-25T04:10:12.495Z,98.39
2022-07-25T04:11:12.596Z,98.49
2022-07-25T04:12:12.457Z,98.58
2022-07-25T04:13:12.622Z,98.77
2022-07-25T04:14:12.330Z,98.87
2022-07-25T04:15:12.290Z,98.29
2022-07-25T04:16:16.873Z,98.49
2022-07-25T04:17:12.296Z,98.39
2022-07-25T04:18:16.464Z,98.68
2022-07-25T04:19:12.121Z,98.77
2022-07-25T04:20:12.248Z,97.72
2022-07-25T04:21:12.064Z,97.91
2022-07-25T04:22:12.267Z,98.19
2022-07-25T04:23:11.977Z,97.72
2022-07-25T04:24:12.192Z,98.10
2022-07-25T04:25:11.881Z,97.62
2022-07-25T04:26:14.358Z,97.52
2022-07-25T04:27:11.801Z,97.72
2022-07-25T04:28:11.900Z,97.72
2022-07-25T04:29:11.728Z,97.91
2022-07-25T04:30:11.913Z,97.42
2022-07-25T04:31:11.898Z,97.42
2022-07-25T04:32:11.806Z,97.42
2022-07-25T04:33:11.585Z,97.81
2022-07-25T04:34:11.735Z,98.19
2022-07-25T04:35:11.479Z,98.10
2022-07-25T04:36:11.549Z,98.97
2022-07-25T04:37:11.403Z,98.97
2022-07-25T04:38:12.251Z,98.97
2022-07-25T04:39:11.413Z,98.87
2022-07-25T04:40:11.394Z,98.39
2022-07-25T04:41:11.280Z,98.49
2022-07-25T04:42:11.390Z,98.58
2022-07-25T04:43:11.164Z,98.77
2022-07-25T04:44:11.132Z,98.68
2022-07-25T04:45:11.076Z,98.49
2022-07-25T04:46:11.263Z,98.68
2022-07-25T04:47:11.275Z,98.68
2022-07-25T04:48:11.247Z,98.68
2022-07-25T04:49:10.953Z,98.68
2022-07-25T04:50:11.035Z,98.63
2022-07-25T04:51:10.868Z,98.58
2022-07-25T04:52:11.051Z,98.44
2022-07-25T04:53:10.762Z,98.92
2022-07-25T04:54:11.065Z,98.63
2022-07-25T04:55:10.866Z,98.72
2022-07-25T04:56:10.646Z,98.92
2022-07-25T04:57:10.878Z,98.72
2022-07-25T04:58:10.561Z,98.72
2022-07-25T04:59:10.686Z,98.82
2022-07-25T05:00:10.492Z,98.72
2022-07-25T05:01:10.491Z,98.92
2022-07-25T05:02:10.459Z,98.92
2022-07-25T05:03:10.513Z,98.77
2022-07-25T05:04:10.476Z,97.91
2022-07-25T05:05:21.674Z,97.72
2022-07-25T05:06:10.239Z,97.72
2022-07-25T05:07:10.337Z,97.81
2022-07-25T05:08:10.169Z,98.20
2022-07-25T05:09:10.351Z,97.42
2022-07-25T05:10:10.116Z,97.62
2022-07-25T05:11:10.168Z,97.42
2022-07-25T05:12:10.166Z,97.72
2022-07-25T05:13:10.262Z,97.72
2022-07-25T05:14:10.321Z,97.72
2022-07-25T05:15:09.880Z,98.10
2022-07-25T05:16:10.050Z,97.91
2022-07-25T05:17:09.803Z,97.77
2022-07-25T05:18:09.763Z,97.62
2022-07-25T05:19:10.021Z,97.91
2022-07-25T05:20:09.681Z,97.81
2022-07-25T05:21:09.831Z,97.91
2022-07-25T05:22:09.603Z,97.72
2022-07-25T05:23:09.567Z,97.47
2022-07-25T05:24:09.974Z,97.33
2022-07-25T05:25:09.647Z,97.86
2022-07-25T05:26:09.455Z,97.86
2022-07-25T05:27:09.680Z,97.96
2022-07-25T05:28:09.368Z,97.96
2022-07-25T05:29:09.324Z,98.15
2022-07-25T05:30:10.506Z,97.86
2022-07-25T05:31:09.292Z,97.86
2022-07-25T05:32:09.289Z,97.96
2022-07-25T05:33:09.361Z,97.19
2022-07-25T05:34:09.698Z,96.99
2022-07-25T05:35:09.101Z,97.04
2022-07-25T05:36:09.322Z,96.84
2022-07-25T05:37:09.012Z,96.84
2022-07-25T05:38:09.140Z,96.94
2022-07-25T05:39:08.958Z,97.04
2022-07-25T05:40:08.889Z,96.84
2022-07-25T05:41:08.850Z,96.75
2022-07-25T05:42:08.962Z,96.36
2022-07-25T05:43:08.773Z,96.94
2022-07-25T05:44:09.424Z,96.89
2022-07-25T05:45:08.823Z,95.54
2022-07-25T05:46:08.658Z,96.03
2022-07-25T05:47:08.859Z,96.22
2022-07-25T05:48:08.585Z,96.22
2022-07-25T05:49:08.864Z,96.12
2022-07-25T05:50:08.679Z,95.54
2022-07-25T05:51:08.616Z,95.83
2022-07-25T05:52:12.429Z,95.25
2022-07-25T05:53:08.625Z,95.20
2022-07-25T05:54:08.810Z,95.01
2022-07-25T05:55:08.430Z,94.72
2022-07-25T05:56:08.482Z,94.34
2022-07-25T05:57:08.222Z,94.62
2022-07-25T05:58:08.368Z,94.34
2022-07-25T05:59:08.285Z,94.53
2022-07-25T06:03:47.811Z,93.47
2022-07-25T06:04:47.428Z,93.47
2022-07-25T06:05:47.665Z,93.18
2022-07-25T06:06:47.350Z,93.37
2022-07-25T06:07:47.430Z,93.85
2022-07-25T06:08:47.264Z,94.53
2022-07-25T06:09:47.446Z,94.24
2022-07-25T06:10:47.190Z,94.72
2022-07-25T06:11:54.340Z,95.01
2022-07-25T06:12:47.107Z,95.30
2022-07-25T06:13:47.270Z,95.15
2022-07-25T06:14:47.049Z,95.15
2022-07-25T06:15:47.019Z,95.64
2022-07-25T06:16:47.128Z,95.45
2022-07-25T06:17:46.909Z,95.15
2022-07-25T06:18:47.097Z,94.87
2022-07-25T06:19:47.106Z,94.96
2022-07-25T06:20:46.801Z,94.87
2022-07-25T06:21:46.926Z,94.67
2022-07-25T06:22:46.712Z,94.09
2022-07-25T06:23:46.933Z,94.04
2022-07-25T06:24:46.634Z,93.46
2022-07-25T06:25:50.097Z,93.46
2022-07-25T06:26:46.556Z,92.79
2022-07-25T06:27:46.963Z,92.69
2022-07-25T06:28:46.477Z,92.79
2022-07-25T06:29:46.570Z,92.40
2022-07-25T06:30:46.413Z,92.44
2022-07-25T06:31:47.413Z,92.44
2022-07-25T06:32:46.339Z,92.16
2022-07-25T06:33:46.389Z,91.58
2022-07-25T06:34:46.251Z,91.77
2022-07-25T06:35:46.609Z,91.14
2022-07-25T06:36:46.172Z,90.94
2022-07-25T06:37:46.178Z,90.26
2022-07-25T06:38:46.219Z,90.46
2022-07-25T06:39:46.327Z,89.11
2022-07-25T06:40:46.235Z,88.71
2022-07-25T06:41:45.982Z,88.43
2022-07-25T06:42:45.941Z,88.13
2022-07-25T06:43:46.100Z,88.37
2022-07-25T06:44:46.058Z,87.70
2022-07-25T06:45:45.835Z,87.21
2022-07-25T06:46:46.143Z,86.92
2022-07-25T06:47:45.742Z,86.24
2022-07-25T06:48:45.792Z,86.24
2022-07-25T06:49:45.665Z,86.15
2022-07-25T06:50:46.104Z,85.31
2022-07-25T06:51:45.589Z,85.41
2022-07-25T06:52:45.711Z,84.74
2022-07-25T06:53:45.510Z,84.25
2022-07-25T06:54:45.478Z,84.16
2022-07-25T06:55:45.443Z,84.49
2022-07-25T06:56:45.739Z,84.49
2022-07-25T06:57:45.372Z,84.30
2022-07-25T06:58:45.576Z,83.62
2022-07-25T06:59:45.295Z,83.42
2022-07-25T07:00:45.281Z,82.94
2022-07-25T07:01:49.608Z,83.42
2022-07-25T07:02:45.427Z,83.07
2022-07-25T07:03:45.442Z,82.88
2022-07-25T07:04:45.104Z,82.78
2022-07-25T07:05:45.059Z,83.17
2022-07-25T07:06:45.024Z,82.69
2022-07-25T07:07:47.872Z,82.78
2022-07-25T07:08:44.951Z,82.78
2022-07-25T07:09:45.218Z,82.20
2022-07-25T07:10:44.881Z,81.91
2022-07-25T07:11:44.836Z,81.27
2022-07-25T07:12:44.816Z,80.79
2022-07-25T07:13:45.040Z,80.40
2022-07-25T07:14:44.730Z,80.40
2022-07-25T07:15:45.117Z,79.53
2022-07-25T07:16:44.697Z,78.85
2022-07-25T07:17:44.607Z,79.53
2022-07-25T07:18:48.850Z,79.43
2022-07-25T07:19:44.600Z,79.14
2022-07-25T07:20:44.694Z,78.85
2022-07-25T07:21:44.493Z,78.66
2022-07-25T07:22:44.417Z,78.79
2022-07-25T07:23:44.380Z,78.21
2022-07-25T07:24:48.079Z,78.02
2022-07-25T07:25:44.576Z,77.82
2022-07-25T07:26:44.529Z,78.31
2022-07-25T07:27:44.238Z,77.72
2022-07-25T07:28:44.199Z,78.44
2022-07-25T07:29:44.342Z,78.25
2022-07-25T07:31:14.576Z,76.89
2022-07-25T07:31:44.334Z,76.60
2022-07-25T07:32:44.155Z,75.62
2022-07-25T07:33:44.022Z,74.65
2022-07-25T07:34:43.977Z,74.37
2022-07-25T07:35:44.182Z,74.07
2022-07-25T07:36:43.903Z,72.42
2022-07-25T07:37:44.190Z,72.71
2022-07-25T07:38:43.839Z,72.71
2022-07-25T07:39:44.032Z,72.03
2022-07-25T07:40:43.891Z,72.52
2022-07-25T07:41:43.815Z,72.52
2022-07-25T07:42:43.715Z,72.71
2022-07-25T07:43:43.847Z,73.20
2022-07-25T07:44:43.599Z,73.00
2022-07-25T07:45:43.562Z,72.52
2022-07-25T07:46:43.753Z,73.00
2022-07-25T07:47:43.645Z,71.64
2022-07-25T07:48:43.507Z,70.87
2022-07-25T07:49:48.401Z,71.97
2022-07-25T07:50:43.377Z,71.00
2022-07-25T07:51:43.342Z,70.61
2022-07-25T07:52:43.336Z,70.71
2022-07-25T07:53:43.487Z,69.67
2022-07-25T07:54:43.226Z,69.19
2022-07-25T07:55:43.296Z,69.67
2022-07-25T07:56:43.193Z,70.75
2022-07-25T07:57:43.115Z,68.99
2022-07-25T07:58:43.381Z,67.44
2022-07-25T07:59:43.327Z,67.93
2022-07-25T08:00:43.007Z,67.93
2022-07-25T08:01:43.207Z,68.22
2022-07-25T08:02:42.989Z,68.93
2022-07-25T08:03:42.896Z,68.15
2022-07-25T08:04:42.945Z,67.96
2022-07-25T08:05:42.985Z,67.41
2022-07-25T08:06:42.919Z,66.86
2022-07-25T08:07:42.974Z,63.87
2022-07-25T08:08:42.715Z,62.08
2022-07-25T08:09:42.675Z,60.55
2022-07-25T08:10:43.010Z,59.12
2022-07-25T08:11:42.613Z,57.71
2022-07-25T08:12:42.803Z,57.45
2022-07-25T08:13:42.536Z,54.38
2022-07-25T08:14:42.630Z,53.16
2022-07-25T08:15:42.696Z,50.44
2022-07-25T08:16:42.528Z,48.63
2022-07-25T08:17:42.646Z,48.25
2022-07-25T08:18:42.357Z,46.81
2022-07-25T08:19:42.447Z,46.14
2022-07-25T08:20:42.286Z,45.38
2022-07-25T08:21:42.252Z,44.12
2022-07-25T08:22:42.667Z,44.44
2022-07-25T08:23:42.184Z,44.46
2022-07-25T08:24:42.279Z,42.49
2022-07-25T08:25:42.126Z,42.32
2022-07-25T08:26:42.293Z,42.24
2022-07-25T08:27:42.058Z,39.39
2022-07-25T08:28:42.310Z,40.66
2022-07-25T08:29:41.995Z,40.66
2022-07-25T08:30:42.025Z,38.79
2022-07-25T08:31:42.155Z,38.49
2022-07-25T08:32:42.147Z,38.20
2022-07-25T08:33:41.867Z,37.81
2022-07-25T08:34:42.156Z,38.51
2022-07-25T08:35:41.825Z,38.12
2022-07-25T08:36:42.170Z,37.53
2022-07-25T08:37:41.742Z,37.65
2022-07-25T08:38:41.713Z,36.07
2022-07-25T08:39:41.990Z,36.27
2022-07-25T08:40:41.646Z,36.58
2022-07-25T08:41:41.785Z,35.40
2022-07-25T08:42:41.600Z,34.99
2022-07-25T08:43:41.810Z,35.89
2022-07-25T08:44:41.522Z,35.69
2022-07-25T08:45:41.617Z,35.30
2022-07-25T08:46:41.981Z,35.28
2022-07-25T08:47:41.632Z,35.56
2022-07-25T08:48:41.441Z,36.46
2022-07-25T08:49:41.653Z,35.97
2022-07-25T08:50:41.369Z,35.18
2022-07-25T08:51:41.470Z,35.50
2022-07-25T08:52:41.304Z,35.20
2022-07-25T08:53:41.469Z,35.02
2022-07-25T08:54:41.215Z,33.54
2022-07-25T08:55:41.180Z,34.03
2022-07-25T08:56:41.161Z,33.34
2022-07-25T08:57:41.329Z,32.87
2022-07-25T08:58:41.462Z,33.95
2022-07-25T08:59:41.304Z,34.06
2022-07-25T09:00:41.024Z,32.68
2022-07-25T09:01:41.088Z,32.21
2022-07-25T09:02:41.166Z,31.20
2022-07-25T09:03:40.935Z,31.50
2022-07-25T09:04:41.141Z,30.91
2022-07-25T09:05:40.879Z,31.30
2022-07-25T09:06:41.157Z,31.62
2022-07-25T09:07:40.808Z,31.04
2022-07-25T09:08:40.959Z,30.65
2022-07-25T09:09:40.755Z,30.76
2022-07-25T09:10:41.387Z,29.37
2022-07-25T09:11:40.714Z,29.85
2022-07-25T09:12:40.784Z,29.36
2022-07-25T09:13:40.633Z,29.37
2022-07-25T09:14:40.800Z,29.47
2022-07-25T09:15:40.632Z,29.66
2022-07-25T09:16:41.235Z,30.47
2022-07-25T09:17:40.520Z,29.39
2022-07-25T09:18:40.487Z,28.70
2022-07-25T09:19:40.455Z,29.39
2022-07-25T09:20:40.639Z,28.52
2022-07-25T09:21:40.723Z,28.81
2022-07-25T09:22:40.650Z,28.73
2022-07-25T09:23:40.359Z,28.73
2022-07-25T09:24:40.310Z,28.63
2022-07-25T09:25:40.278Z,28.75
2022-07-25T09:26:40.497Z,28.14
2022-07-25T09:27:40.536Z,28.44
2022-07-25T09:28:40.489Z,28.83
2022-07-25T09:29:40.163Z,28.83
2022-07-25T09:30:40.296Z,28.45
2022-07-25T09:31:40.355Z,28.85
2022-07-25T09:32:40.081Z,28.05
2022-07-25T09:33:40.323Z,27.56
2022-07-25T09:34:40.035Z,28.25
2022-07-25T09:35:40.134Z,27.84
2022-07-25T09:36:39.964Z,28.52
2022-07-25T09:37:40.156Z,28.72
2022-07-25T09:38:40.199Z,28.42
2022-07-25T09:39:45.828Z,28.62
2022-07-25T09:40:39.856Z,28.72
2022-07-25T09:41:39.873Z,28.90
2022-07-25T09:42:39.797Z,28.42
2022-07-25T09:43:39.990Z,29.21
2022-07-25T09:44:39.773Z,28.53
2022-07-25T09:45:40.000Z,28.34
2022-07-25T09:46:39.724Z,28.55
2022-07-25T09:47:39.665Z,28.45
2022-07-25T09:48:39.715Z,27.75
2022-07-25T09:49:39.834Z,28.25
2022-07-25T09:50:39.888Z,27.97
2022-07-25T09:51:39.838Z,27.78
2022-07-25T09:52:39.544Z,27.39
2022-07-25T09:53:39.498Z,27.88
2022-07-25T09:54:39.655Z,27.81
2022-07-25T09:55:39.475Z,26.82
2022-07-25T09:56:39.675Z,27.14
2022-07-25T09:57:39.390Z,27.12
2022-07-25T09:58:39.695Z,26.82
2022-07-25T09:59:39.342Z,25.24
2022-07-25T10:00:39.504Z,25.93
2022-07-25T10:01:39.665Z,26.43
2022-07-25T10:02:39.596Z,26.25
2022-07-25T10:03:39.571Z,25.74
2022-07-25T10:04:39.524Z,25.26
2022-07-25T10:05:39.182Z,25.25
2022-07-25T10:06:41.377Z,24.76
2022-07-25T10:07:39.128Z,23.87
2022-07-25T10:08:39.354Z,24.26
2022-07-25T10:09:39.083Z,24.47
2022-07-25T10:10:39.054Z,23.86
2022-07-25T10:11:39.026Z,24.26
2022-07-25T10:12:39.167Z,24.96
2022-07-25T10:13:38.976Z,24.07
2022-07-25T10:14:39.387Z,22.99
2022-07-25T10:15:38.919Z,23.60
2022-07-25T10:16:38.946Z,23.60
2022-07-25T10:17:38.871Z,23.90
2022-07-25T10:18:39.018Z,23.91
2022-07-25T10:19:38.813Z,23.30
2022-07-25T10:20:39.026Z,23.60
2022-07-25T10:21:38.775Z,23.99
2022-07-25T10:22:58.013Z,23.00
2022-07-25T10:23:38.739Z,23.99
2022-07-25T10:24:38.861Z,23.30
2022-07-25T10:25:38.898Z,23.90
2022-07-25T10:26:38.860Z,23.21
2022-07-25T10:27:38.867Z,23.91
2022-07-25T10:28:38.588Z,23.22
2022-07-25T10:29:38.880Z,23.72
2022-07-25T10:30:38.590Z,23.44
2022-07-25T10:31:38.693Z,23.75
2022-07-25T10:32:38.498Z,22.58
2022-07-25T10:33:38.462Z,21.89
2022-07-25T10:34:38.466Z,21.70
2022-07-25T10:35:39.948Z,21.20
2022-07-25T10:36:38.384Z,21.11
2022-07-25T10:37:38.530Z,20.92
2022-07-25T10:38:38.333Z,20.90
2022-07-25T10:39:38.320Z,21.31
2022-07-25T10:40:38.552Z,20.81
2022-07-25T10:41:38.365Z,21.12
2022-07-25T10:42:38.363Z,21.01
2022-07-25T10:43:38.225Z,20.62
2022-07-25T10:44:38.213Z,20.21
2022-07-25T10:45:38.531Z,20.81
2022-07-25T10:46:38.364Z,21.03
2022-07-25T10:47:38.159Z,20.54
2022-07-25T10:48:38.363Z,20.05
2022-07-25T10:49:38.887Z,20.15
2022-07-25T10:50:54.885Z,19.85
2022-07-25T10:51:41.556Z,20.34
2022-07-25T10:52:38.013Z,21.25
2022-07-25T10:53:38.140Z,19.64
2022-07-25T10:54:37.982Z,19.24
2022-07-25T10:55:38.148Z,19.12
2022-07-25T10:56:38.257Z,19.81
2022-07-25T10:57:49.782Z,20.14
2022-07-25T10:58:37.858Z,19.93
2022-07-25T10:59:37.875Z,19.93
2022-07-25T11:00:37.879Z,20.14
2022-07-25T11:01:37.809Z,19.94
2022-07-25T11:02:38.242Z,20.15
2022-07-25T11:03:37.901Z,19.54
2022-07-25T11:04:37.729Z,20.25
2022-07-25T11:05:37.987Z,19.94
2022-07-25T11:06:37.665Z,20.23
2022-07-25T11:07:37.745Z,20.23
2022-07-25T11:08:37.729Z,20.03
2022-07-25T11:09:37.599Z,19.82
2022-07-25T11:10:37.758Z,20.32
2022-07-25T11:11:37.554Z,19.92
2022-07-25T11:12:37.760Z,19.10
2022-07-25T11:13:37.508Z,19.70
2022-07-25T11:14:37.565Z,19.59
2022-07-25T11:15:37.464Z,20.29
2022-07-25T11:16:37.636Z,19.70
2022-07-25T11:17:37.411Z,19.19
2022-07-25T11:18:37.415Z,19.29
2022-07-25T11:19:37.400Z,20.18
2022-07-25T11:20:37.332Z,19.89
2022-07-25T11:21:37.485Z,20.29
2022-07-25T11:22:37.293Z,20.09
2022-07-25T11:23:37.447Z,20.29
2022-07-25T11:24:37.508Z,19.60
2022-07-25T11:25:37.274Z,20.90
2022-07-25T11:26:37.192Z,19.49
2022-07-25T11:27:37.263Z,19.09
2022-07-25T11:28:37.134Z,19.88
2022-07-25T11:29:37.129Z,19.88
2022-07-25T11:30:37.111Z,20.07
2022-07-25T11:33:17.359Z,20.09
2022-07-25T11:34:15.376Z,20.09
2022-07-25T11:35:05.933Z,20.09
2022-07-25T11:36:05.870Z,19.79
2022-07-25T11:37:05.847Z,20.48
2022-07-25T11:38:06.409Z,19.68
2022-07-25T11:39:05.983Z,19.38
2022-07-25T11:40:05.771Z,20.00
2022-07-25T11:41:05.771Z,20.00
2022-07-25T11:42:05.723Z,19.70
2022-07-25T11:43:05.702Z,19.79
2022-07-25T11:44:05.677Z,20.09
2022-07-25T11:45:05.656Z,19.89
2022-07-25T11:46:05.716Z,20.09
2022-07-25T11:47:05.619Z,20.10
2022-07-25T11:48:05.604Z,20.10
2022-07-25T11:49:06.117Z,19.21
2022-07-25T11:50:05.588Z,18.81
2022-07-25T11:51:05.514Z,19.14
2022-07-25T11:52:05.493Z,19.24
2022-07-25T11:53:05.654Z,18.34
2022-07-25T11:54:05.438Z,18.13
2022-07-25T11:55:05.425Z,18.33
2022-07-25T11:56:25.428Z,18.53
2022-07-25T11:57:05.373Z,17.83
2022-07-25T11:58:05.361Z,17.24
2022-07-25T11:59:05.693Z,17.14
2022-07-25T12:00:05.408Z,17.84
2022-07-25T12:01:05.277Z,17.84
2022-07-25T12:02:05.337Z,16.93
2022-07-25T12:03:05.323Z,17.02
2022-07-25T12:04:05.216Z,17.13
2022-07-25T12:05:05.203Z,17.52
2022-07-25T12:06:05.162Z,17.21
2022-07-25T12:07:05.142Z,17.31
2022-07-25T12:08:05.117Z,17.33
2022-07-25T12:09:05.337Z,18.03
2022-07-25T12:10:05.107Z,18.24
2022-07-25T12:11:05.054Z,17.13
2022-07-25T12:12:05.044Z,18.82
2022-07-25T12:13:05.000Z,18.51
2022-07-25T12:14:04.981Z,18.71
2022-07-25T12:15:04.968Z,19.21
2022-07-25T12:16:04.951Z,18.30
2022-07-25T12:17:04.975Z,18.30
2022-07-25T12:18:04.886Z,18.10
2022-07-25T12:19:05.164Z,18.41
2022-07-25T12:20:07.881Z,18.22
2022-07-25T12:21:04.812Z,18.43
2022-07-25T12:22:04.803Z,18.44
2022-07-25T12:23:04.769Z,18.33
2022-07-25T12:24:04.743Z,17.22
2022-07-25T12:25:04.720Z,17.01
2022-07-25T12:26:04.692Z,17.21
2022-07-25T12:27:04.689Z,17.21
2022-07-25T12:28:04.648Z,17.30
2022-07-25T12:29:04.847Z,17.21
2022-07-25T12:30:04.605Z,17.90
2022-07-25T12:31:04.651Z,17.19
2022-07-25T12:32:04.882Z,17.10
2022-07-25T12:33:04.532Z,17.21
2022-07-25T12:34:04.509Z,17.21
2022-07-25T12:35:04.493Z,16.91
2022-07-25T12:36:08.399Z,17.21
2022-07-25T12:37:04.440Z,17.10
2022-07-25T12:38:04.437Z,17.40
2022-07-25T12:39:04.629Z,16.91
2022-07-25T12:40:04.372Z,16.20
2022-07-25T12:41:04.346Z,17.10
2022-07-25T12:42:04.348Z,16.61
2022-07-25T12:43:04.318Z,17.31
2022-07-25T12:44:04.281Z,17.21
2022-07-25T12:45:04.269Z,16.72
2022-07-25T12:46:04.257Z,17.03
2022-07-25T12:47:04.204Z,16.64
2022-07-25T12:48:04.178Z,16.15
2022-07-25T12:49:04.366Z,16.95
2022-07-25T12:50:04.135Z,17.15
2022-07-25T12:51:04.112Z,17.35
2022-07-25T12:52:04.090Z,16.14
2022-07-25T12:53:04.070Z,16.94
2022-07-25T12:54:04.392Z,16.64
2022-07-25T12:55:04.016Z,17.44
2022-07-25T12:56:03.996Z,17.03
2022-07-25T12:57:03.973Z,17.03